sensor_id;sensor_type;location;lat;lon;timestamp;P1;durP1;ratioP1;P2;durP2;ratioP2
8538;SDS011;4307;53.868;11.680;2023-04-29T00:01:23;10.93;;;7.10;;
8538;SDS011;4307;53.868;11.680;2023-04-29T00:03:50;8.87;;;6.27;;
8538;SDS011;4307;53.868;11.680;2023-04-29T00:06:16;11.03;;;6.70;;
8538;SDS011;4307;53.868;11.680;2023-04-29T00:08:43;10.73;;;6.53;;
8538;SDS011;4307;53.868;11.680;2023-04-29T00:11:10;8.67;;;5.57;;
8538;SDS011;4307;53.868;11.680;2023-04-29T00:13:36;8.40;;;6.33;;
8538;SDS011;4307;53.868;11.680;2023-04-29T00:16:05;8.90;;;6.70;;
8538;SDS011;4307;53.868;11.680;2023-04-29T00:18:33;13.93;;;7.00;;
8538;SDS011;4307;53.868;11.680;2023-04-29T00:21:01;8.27;;;6.50;;
8538;SDS011;4307;53.868;11.680;2023-04-29T00:23:29;11.30;;;6.67;;
8538;SDS011;4307;53.868;11.680;2023-04-29T00:25:56;10.93;;;6.63;;
8538;SDS011;4307;53.868;11.680;2023-04-29T00:28:23;13.77;;;7.20;;
8538;SDS011;4307;53.868;11.680;2023-04-29T00:30:49;8.30;;;6.63;;
8538;SDS011;4307;53.868;11.680;2023-04-29T00:33:17;10.17;;;6.53;;
8538;SDS011;4307;53.868;11.680;2023-04-29T00:35:45;10.67;;;6.47;;
8538;SDS011;4307;53.868;11.680;2023-04-29T00:38:12;14.10;;;6.80;;
8538;SDS011;4307;53.868;11.680;2023-04-29T00:40:38;13.97;;;7.13;;
8538;SDS011;4307;53.868;11.680;2023-04-29T00:43:05;8.60;;;6.13;;
8538;SDS011;4307;53.868;11.680;2023-04-29T00:45:31;11.43;;;6.93;;
8538;SDS011;4307;53.868;11.680;2023-04-29T00:47:58;12.37;;;6.63;;
8538;SDS011;4307;53.868;11.680;2023-04-29T00:50:25;12.80;;;6.43;;
8538;SDS011;4307;53.868;11.680;2023-04-29T00:52:53;9.33;;;6.90;;
8538;SDS011;4307;53.868;11.680;2023-04-29T00:55:20;9.60;;;7.00;;
8538;SDS011;4307;53.868;11.680;2023-04-29T00:57:47;11.77;;;6.80;;
8538;SDS011;4307;53.868;11.680;2023-04-29T01:00:16;10.70;;;6.30;;
8538;SDS011;4307;53.868;11.680;2023-04-29T01:02:45;10.33;;;6.57;;
8538;SDS011;4307;53.868;11.680;2023-04-29T01:05:13;13.60;;;6.90;;
8538;SDS011;4307;53.868;11.680;2023-04-29T01:07:42;9.13;;;6.97;;
8538;SDS011;4307;53.868;11.680;2023-04-29T01:10:21;11.70;;;7.27;;
8538;SDS011;4307;53.868;11.680;2023-04-29T01:12:57;12.80;;;7.23;;
8538;SDS011;4307;53.868;11.680;2023-04-29T01:15:32;11.37;;;6.57;;
8538;SDS011;4307;53.868;11.680;2023-04-29T01:18:05;13.13;;;6.93;;
8538;SDS011;4307;53.868;11.680;2023-04-29T01:20:37;13.23;;;7.20;;
8538;SDS011;4307;53.868;11.680;2023-04-29T01:23:04;10.80;;;8.23;;
8538;SDS011;4307;53.868;11.680;2023-04-29T01:25:32;10.27;;;7.80;;
8538;SDS011;4307;53.868;11.680;2023-04-29T01:28:01;10.73;;;7.50;;
8538;SDS011;4307;53.868;11.680;2023-04-29T01:30:34;12.47;;;7.60;;
8538;SDS011;4307;53.868;11.680;2023-04-29T01:33:09;10.57;;;7.57;;
8538;SDS011;4307;53.868;11.680;2023-04-29T01:35:49;13.93;;;8.40;;
8538;SDS011;4307;53.868;11.680;2023-04-29T01:38:28;14.90;;;7.73;;
8538;SDS011;4307;53.868;11.680;2023-04-29T01:41:03;10.57;;;7.27;;
8538;SDS011;4307;53.868;11.680;2023-04-29T01:43:38;11.30;;;8.33;;
8538;SDS011;4307;53.868;11.680;2023-04-29T01:46:05;13.77;;;8.40;;
8538;SDS011;4307;53.868;11.680;2023-04-29T01:48:35;13.13;;;8.43;;
8538;SDS011;4307;53.868;11.680;2023-04-29T01:51:01;15.03;;;8.20;;
8538;SDS011;4307;53.868;11.680;2023-04-29T01:53:29;13.17;;;7.93;;
8538;SDS011;4307;53.868;11.680;2023-04-29T01:55:56;10.93;;;7.60;;
8538;SDS011;4307;53.868;11.680;2023-04-29T01:58:24;12.70;;;8.57;;
8538;SDS011;4307;53.868;11.680;2023-04-29T02:00:52;15.70;;;8.77;;
8538;SDS011;4307;53.868;11.680;2023-04-29T02:03:18;14.30;;;8.90;;
8538;SDS011;4307;53.868;11.680;2023-04-29T02:05:45;15.77;;;8.73;;
8538;SDS011;4307;53.868;11.680;2023-04-29T02:08:14;13.60;;;8.40;;
8538;SDS011;4307;53.868;11.680;2023-04-29T02:10:41;15.10;;;9.40;;
8538;SDS011;4307;53.868;11.680;2023-04-29T02:13:16;13.07;;;8.17;;
8538;SDS011;4307;53.868;11.680;2023-04-29T02:15:44;16.00;;;9.53;;
8538;SDS011;4307;53.868;11.680;2023-04-29T02:18:10;16.03;;;9.27;;
8538;SDS011;4307;53.868;11.680;2023-04-29T02:20:37;14.07;;;9.40;;
8538;SDS011;4307;53.868;11.680;2023-04-29T02:23:04;12.03;;;9.47;;
8538;SDS011;4307;53.868;11.680;2023-04-29T02:25:30;12.37;;;8.20;;
8538;SDS011;4307;53.868;11.680;2023-04-29T02:27:57;14.93;;;9.00;;
8538;SDS011;4307;53.868;11.680;2023-04-29T02:30:24;14.27;;;9.10;;
8538;SDS011;4307;53.868;11.680;2023-04-29T02:32:52;15.33;;;9.40;;
8538;SDS011;4307;53.868;11.680;2023-04-29T02:35:19;14.10;;;9.10;;
8538;SDS011;4307;53.868;11.680;2023-04-29T02:37:46;19.30;;;10.03;;
8538;SDS011;4307;53.868;11.680;2023-04-29T02:40:12;14.10;;;9.40;;
8538;SDS011;4307;53.868;11.680;2023-04-29T02:42:39;16.37;;;10.17;;
8538;SDS011;4307;53.868;11.680;2023-04-29T02:45:06;15.57;;;9.87;;
8538;SDS011;4307;53.868;11.680;2023-04-29T02:47:34;14.93;;;8.63;;
8538;SDS011;4307;53.868;11.680;2023-04-29T02:50:02;16.60;;;10.17;;
8538;SDS011;4307;53.868;11.680;2023-04-29T02:52:30;15.20;;;9.17;;
8538;SDS011;4307;53.868;11.680;2023-04-29T02:54:56;16.27;;;10.10;;
8538;SDS011;4307;53.868;11.680;2023-04-29T02:57:23;18.53;;;10.93;;
8538;SDS011;4307;53.868;11.680;2023-04-29T02:59:49;16.03;;;9.47;;
8538;SDS011;4307;53.868;11.680;2023-04-29T03:02:16;15.17;;;9.53;;
8538;SDS011;4307;53.868;11.680;2023-04-29T03:04:43;14.73;;;9.60;;
8538;SDS011;4307;53.868;11.680;2023-04-29T03:07:11;14.37;;;9.10;;
8538;SDS011;4307;53.868;11.680;2023-04-29T03:09:37;16.90;;;9.47;;
8538;SDS011;4307;53.868;11.680;2023-04-29T03:12:04;13.63;;;9.40;;
8538;SDS011;4307;53.868;11.680;2023-04-29T03:14:31;15.43;;;9.37;;
8538;SDS011;4307;53.868;11.680;2023-04-29T03:16:57;14.97;;;9.57;;
8538;SDS011;4307;53.868;11.680;2023-04-29T03:19:24;16.77;;;9.90;;
8538;SDS011;4307;53.868;11.680;2023-04-29T03:21:51;15.03;;;10.43;;
8538;SDS011;4307;53.868;11.680;2023-04-29T03:24:18;15.57;;;9.57;;
8538;SDS011;4307;53.868;11.680;2023-04-29T03:26:45;16.63;;;10.23;;
8538;SDS011;4307;53.868;11.680;2023-04-29T03:29:15;18.00;;;9.93;;
8538;SDS011;4307;53.868;11.680;2023-04-29T03:31:41;13.77;;;9.53;;
8538;SDS011;4307;53.868;11.680;2023-04-29T03:34:08;15.00;;;10.60;;
8538;SDS011;4307;53.868;11.680;2023-04-29T03:36:35;14.83;;;9.13;;
8538;SDS011;4307;53.868;11.680;2023-04-29T03:39:02;14.30;;;9.10;;
8538;SDS011;4307;53.868;11.680;2023-04-29T03:41:30;18.50;;;11.00;;
8538;SDS011;4307;53.868;11.680;2023-04-29T03:43:57;17.53;;;10.33;;
8538;SDS011;4307;53.868;11.680;2023-04-29T03:46:24;12.57;;;9.87;;
8538;SDS011;4307;53.868;11.680;2023-04-29T03:48:51;12.40;;;9.97;;
8538;SDS011;4307;53.868;11.680;2023-04-29T03:51:20;11.13;;;8.97;;
8538;SDS011;4307;53.868;11.680;2023-04-29T03:53:46;16.73;;;9.73;;
8538;SDS011;4307;53.868;11.680;2023-04-29T03:56:13;15.07;;;9.70;;
8538;SDS011;4307;53.868;11.680;2023-04-29T03:58:41;18.30;;;9.63;;
8538;SDS011;4307;53.868;11.680;2023-04-29T04:01:09;14.77;;;9.03;;
8538;SDS011;4307;53.868;11.680;2023-04-29T04:03:36;14.80;;;9.60;;
8538;SDS011;4307;53.868;11.680;2023-04-29T04:06:02;15.10;;;9.43;;
8538;SDS011;4307;53.868;11.680;2023-04-29T04:08:29;16.53;;;10.03;;
8538;SDS011;4307;53.868;11.680;2023-04-29T04:10:55;13.50;;;9.77;;
8538;SDS011;4307;53.868;11.680;2023-04-29T04:13:27;15.43;;;9.67;;
8538;SDS011;4307;53.868;11.680;2023-04-29T04:15:55;18.20;;;9.87;;
8538;SDS011;4307;53.868;11.680;2023-04-29T04:18:21;17.83;;;9.47;;
8538;SDS011;4307;53.868;11.680;2023-04-29T04:20:48;15.73;;;9.73;;
8538;SDS011;4307;53.868;11.680;2023-04-29T04:23:15;13.37;;;9.50;;
8538;SDS011;4307;53.868;11.680;2023-04-29T04:25:43;11.90;;;8.33;;
8538;SDS011;4307;53.868;11.680;2023-04-29T04:28:10;14.03;;;9.27;;
8538;SDS011;4307;53.868;11.680;2023-04-29T04:30:37;13.40;;;9.27;;
8538;SDS011;4307;53.868;11.680;2023-04-29T04:33:05;15.40;;;9.60;;
8538;SDS011;4307;53.868;11.680;2023-04-29T04:35:32;12.77;;;9.07;;
8538;SDS011;4307;53.868;11.680;2023-04-29T04:37:58;12.60;;;8.20;;
8538;SDS011;4307;53.868;11.680;2023-04-29T04:40:25;15.07;;;9.13;;
8538;SDS011;4307;53.868;11.680;2023-04-29T04:42:52;14.50;;;8.93;;
8538;SDS011;4307;53.868;11.680;2023-04-29T04:45:18;12.80;;;9.20;;
8538;SDS011;4307;53.868;11.680;2023-04-29T04:47:46;11.40;;;8.37;;
8538;SDS011;4307;53.868;11.680;2023-04-29T04:50:14;12.10;;;9.00;;
8538;SDS011;4307;53.868;11.680;2023-04-29T04:52:40;15.53;;;8.13;;
8538;SDS011;4307;53.868;11.680;2023-04-29T04:55:07;12.57;;;8.73;;
8538;SDS011;4307;53.868;11.680;2023-04-29T04:57:35;13.70;;;8.87;;
8538;SDS011;4307;53.868;11.680;2023-04-29T05:00:02;11.67;;;8.77;;
8538;SDS011;4307;53.868;11.680;2023-04-29T05:02:29;16.33;;;8.73;;
8538;SDS011;4307;53.868;11.680;2023-04-29T05:04:56;16.77;;;8.73;;
8538;SDS011;4307;53.868;11.680;2023-04-29T05:07:24;13.33;;;9.33;;
8538;SDS011;4307;53.868;11.680;2023-04-29T05:09:50;11.53;;;8.53;;
8538;SDS011;4307;53.868;11.680;2023-04-29T05:12:17;14.53;;;9.40;;
8538;SDS011;4307;53.868;11.680;2023-04-29T05:14:44;12.73;;;8.60;;
8538;SDS011;4307;53.868;11.680;2023-04-29T05:17:10;15.83;;;8.37;;
8538;SDS011;4307;53.868;11.680;2023-04-29T05:19:37;12.27;;;8.77;;
8538;SDS011;4307;53.868;11.680;2023-04-29T05:22:04;11.80;;;8.47;;
8538;SDS011;4307;53.868;11.680;2023-04-29T05:24:31;12.47;;;9.10;;
8538;SDS011;4307;53.868;11.680;2023-04-29T05:26:58;13.50;;;7.93;;
8538;SDS011;4307;53.868;11.680;2023-04-29T05:29:25;13.60;;;8.77;;
8538;SDS011;4307;53.868;11.680;2023-04-29T05:31:52;14.63;;;8.07;;
8538;SDS011;4307;53.868;11.680;2023-04-29T05:34:18;12.83;;;8.20;;
8538;SDS011;4307;53.868;11.680;2023-04-29T05:36:45;14.77;;;8.73;;
8538;SDS011;4307;53.868;11.680;2023-04-29T05:39:12;14.83;;;8.77;;
8538;SDS011;4307;53.868;11.680;2023-04-29T05:41:40;14.47;;;7.83;;
8538;SDS011;4307;53.868;11.680;2023-04-29T05:44:06;13.37;;;8.00;;
8538;SDS011;4307;53.868;11.680;2023-04-29T05:46:33;13.97;;;8.50;;
8538;SDS011;4307;53.868;11.680;2023-04-29T05:49:00;11.73;;;8.17;;
8538;SDS011;4307;53.868;11.680;2023-04-29T05:51:26;14.83;;;8.40;;
8538;SDS011;4307;53.868;11.680;2023-04-29T05:53:53;11.83;;;8.17;;
8538;SDS011;4307;53.868;11.680;2023-04-29T05:56:20;16.40;;;8.27;;
8538;SDS011;4307;53.868;11.680;2023-04-29T05:58:48;10.67;;;7.13;;
8538;SDS011;4307;53.868;11.680;2023-04-29T06:01:15;12.47;;;7.47;;
8538;SDS011;4307;53.868;11.680;2023-04-29T06:03:42;11.93;;;7.00;;
8538;SDS011;4307;53.868;11.680;2023-04-29T06:06:09;12.30;;;8.10;;
8538;SDS011;4307;53.868;11.680;2023-04-29T06:08:35;14.20;;;7.90;;
8538;SDS011;4307;53.868;11.680;2023-04-29T06:11:02;12.43;;;7.03;;
8538;SDS011;4307;53.868;11.680;2023-04-29T06:13:30;11.37;;;7.57;;
8538;SDS011;4307;53.868;11.680;2023-04-29T06:15:58;10.73;;;7.00;;
8538;SDS011;4307;53.868;11.680;2023-04-29T06:18:25;13.13;;;7.30;;
8538;SDS011;4307;53.868;11.680;2023-04-29T06:20:51;11.57;;;7.50;;
8538;SDS011;4307;53.868;11.680;2023-04-29T06:23:18;9.63;;;6.63;;
8538;SDS011;4307;53.868;11.680;2023-04-29T06:25:45;11.27;;;5.57;;
8538;SDS011;4307;53.868;11.680;2023-04-29T06:28:11;7.30;;;5.47;;
8538;SDS011;4307;53.868;11.680;2023-04-29T06:30:38;12.13;;;6.07;;
8538;SDS011;4307;53.868;11.680;2023-04-29T06:33:06;7.60;;;5.30;;
8538;SDS011;4307;53.868;11.680;2023-04-29T06:35:33;7.97;;;5.37;;
8538;SDS011;4307;53.868;11.680;2023-04-29T06:38:04;10.47;;;5.77;;
8538;SDS011;4307;53.868;11.680;2023-04-29T06:40:32;10.43;;;4.93;;
8538;SDS011;4307;53.868;11.680;2023-04-29T06:42:58;8.60;;;5.70;;
8538;SDS011;4307;53.868;11.680;2023-04-29T06:45:26;10.37;;;5.93;;
8538;SDS011;4307;53.868;11.680;2023-04-29T06:47:52;11.20;;;6.00;;
8538;SDS011;4307;53.868;11.680;2023-04-29T06:50:20;10.53;;;5.97;;
8538;SDS011;4307;53.868;11.680;2023-04-29T06:52:47;8.23;;;6.00;;
8538;SDS011;4307;53.868;11.680;2023-04-29T06:55:14;6.60;;;5.27;;
8538;SDS011;4307;53.868;11.680;2023-04-29T06:57:41;12.73;;;6.43;;
8538;SDS011;4307;53.868;11.680;2023-04-29T07:00:07;10.10;;;6.23;;
8538;SDS011;4307;53.868;11.680;2023-04-29T07:02:35;10.70;;;6.50;;
8538;SDS011;4307;53.868;11.680;2023-04-29T07:05:02;9.27;;;6.00;;
8538;SDS011;4307;53.868;11.680;2023-04-29T07:07:31;8.93;;;5.90;;
8538;SDS011;4307;53.868;11.680;2023-04-29T07:09:58;13.30;;;6.63;;
8538;SDS011;4307;53.868;11.680;2023-04-29T07:12:25;9.43;;;6.03;;
8538;SDS011;4307;53.868;11.680;2023-04-29T07:14:52;7.67;;;5.87;;
8538;SDS011;4307;53.868;11.680;2023-04-29T07:17:18;8.90;;;6.00;;
8538;SDS011;4307;53.868;11.680;2023-04-29T07:19:45;11.73;;;6.40;;
8538;SDS011;4307;53.868;11.680;2023-04-29T07:22:12;7.53;;;6.10;;
8538;SDS011;4307;53.868;11.680;2023-04-29T07:24:40;9.63;;;6.13;;
8538;SDS011;4307;53.868;11.680;2023-04-29T07:27:06;8.60;;;5.27;;
8538;SDS011;4307;53.868;11.680;2023-04-29T07:29:33;11.67;;;5.50;;
8538;SDS011;4307;53.868;11.680;2023-04-29T07:32:00;8.50;;;5.70;;
8538;SDS011;4307;53.868;11.680;2023-04-29T07:34:26;9.03;;;5.53;;
8538;SDS011;4307;53.868;11.680;2023-04-29T07:36:53;9.17;;;5.80;;
8538;SDS011;4307;53.868;11.680;2023-04-29T07:39:21;10.27;;;5.50;;
8538;SDS011;4307;53.868;11.680;2023-04-29T07:41:49;8.07;;;5.47;;
8538;SDS011;4307;53.868;11.680;2023-04-29T07:44:16;6.90;;;4.97;;
8538;SDS011;4307;53.868;11.680;2023-04-29T07:46:42;9.73;;;5.57;;
8538;SDS011;4307;53.868;11.680;2023-04-29T07:49:09;9.33;;;5.00;;
8538;SDS011;4307;53.868;11.680;2023-04-29T07:51:36;7.10;;;5.60;;
8538;SDS011;4307;53.868;11.680;2023-04-29T07:54:05;9.67;;;5.80;;
8538;SDS011;4307;53.868;11.680;2023-04-29T07:56:32;9.93;;;5.47;;
8538;SDS011;4307;53.868;11.680;2023-04-29T07:59:01;8.00;;;5.50;;
8538;SDS011;4307;53.868;11.680;2023-04-29T08:01:27;8.13;;;5.00;;
8538;SDS011;4307;53.868;11.680;2023-04-29T08:03:54;11.47;;;5.60;;
8538;SDS011;4307;53.868;11.680;2023-04-29T08:06:21;7.50;;;5.30;;
8538;SDS011;4307;53.868;11.680;2023-04-29T08:08:48;8.20;;;5.80;;
8538;SDS011;4307;53.868;11.680;2023-04-29T08:11:15;7.77;;;5.17;;
8538;SDS011;4307;53.868;11.680;2023-04-29T08:13:42;10.40;;;5.37;;
8538;SDS011;4307;53.868;11.680;2023-04-29T08:16:10;9.40;;;4.80;;
8538;SDS011;4307;53.868;11.680;2023-04-29T08:18:37;10.30;;;5.00;;
8538;SDS011;4307;53.868;11.680;2023-04-29T08:21:04;10.93;;;5.13;;
8538;SDS011;4307;53.868;11.680;2023-04-29T08:23:31;7.13;;;5.27;;
8538;SDS011;4307;53.868;11.680;2023-04-29T08:25:58;6.43;;;4.43;;
8538;SDS011;4307;53.868;11.680;2023-04-29T08:28:25;9.57;;;4.83;;
8538;SDS011;4307;53.868;11.680;2023-04-29T08:30:51;9.30;;;5.67;;
8538;SDS011;4307;53.868;11.680;2023-04-29T08:33:20;7.83;;;5.03;;
8538;SDS011;4307;53.868;11.680;2023-04-29T08:35:47;9.27;;;4.90;;
8538;SDS011;4307;53.868;11.680;2023-04-29T08:38:14;8.80;;;5.10;;
8538;SDS011;4307;53.868;11.680;2023-04-29T08:40:41;10.30;;;6.10;;
8538;SDS011;4307;53.868;11.680;2023-04-29T08:43:09;10.33;;;5.00;;
8538;SDS011;4307;53.868;11.680;2023-04-29T08:45:37;6.43;;;5.50;;
8538;SDS011;4307;53.868;11.680;2023-04-29T08:48:05;9.13;;;5.27;;
8538;SDS011;4307;53.868;11.680;2023-04-29T08:50:36;8.27;;;5.83;;
8538;SDS011;4307;53.868;11.680;2023-04-29T08:53:04;9.47;;;5.77;;
8538;SDS011;4307;53.868;11.680;2023-04-29T08:55:32;8.57;;;5.27;;
8538;SDS011;4307;53.868;11.680;2023-04-29T08:58:01;7.50;;;5.17;;
8538;SDS011;4307;53.868;11.680;2023-04-29T09:00:29;10.10;;;5.27;;
8538;SDS011;4307;53.868;11.680;2023-04-29T09:02:57;9.27;;;5.30;;
8538;SDS011;4307;53.868;11.680;2023-04-29T09:05:25;6.83;;;4.93;;
8538;SDS011;4307;53.868;11.680;2023-04-29T09:07:54;12.97;;;5.43;;
8538;SDS011;4307;53.868;11.680;2023-04-29T09:10:23;8.37;;;5.37;;
8538;SDS011;4307;53.868;11.680;2023-04-29T09:12:51;7.43;;;5.03;;
8538;SDS011;4307;53.868;11.680;2023-04-29T09:15:21;8.43;;;5.23;;
8538;SDS011;4307;53.868;11.680;2023-04-29T09:17:48;7.83;;;4.87;;
8538;SDS011;4307;53.868;11.680;2023-04-29T09:20:30;8.20;;;4.77;;
8538;SDS011;4307;53.868;11.680;2023-04-29T09:22:58;10.60;;;5.20;;
8538;SDS011;4307;53.868;11.680;2023-04-29T09:25:27;5.67;;;4.80;;
8538;SDS011;4307;53.868;11.680;2023-04-29T09:27:55;9.77;;;5.70;;
8538;SDS011;4307;53.868;11.680;2023-04-29T09:30:22;9.77;;;4.90;;
8538;SDS011;4307;53.868;11.680;2023-04-29T09:33:03;6.43;;;5.13;;
8538;SDS011;4307;53.868;11.680;2023-04-29T09:35:31;7.70;;;5.33;;
8538;SDS011;4307;53.868;11.680;2023-04-29T09:38:08;7.60;;;4.90;;
8538;SDS011;4307;53.868;11.680;2023-04-29T09:40:36;8.63;;;5.40;;
8538;SDS011;4307;53.868;11.680;2023-04-29T09:43:04;9.77;;;5.40;;
8538;SDS011;4307;53.868;11.680;2023-04-29T09:45:39;7.37;;;5.27;;
8538;SDS011;4307;53.868;11.680;2023-04-29T09:48:08;8.23;;;4.83;;
8538;SDS011;4307;53.868;11.680;2023-04-29T09:50:35;8.40;;;5.00;;
8538;SDS011;4307;53.868;11.680;2023-04-29T09:53:03;6.73;;;4.90;;
8538;SDS011;4307;53.868;11.680;2023-04-29T09:55:31;9.10;;;5.17;;
8538;SDS011;4307;53.868;11.680;2023-04-29T09:57:58;10.60;;;4.80;;
8538;SDS011;4307;53.868;11.680;2023-04-29T10:00:25;8.17;;;5.53;;
8538;SDS011;4307;53.868;11.680;2023-04-29T10:02:56;9.20;;;5.90;;
8538;SDS011;4307;53.868;11.680;2023-04-29T10:05:25;7.57;;;5.80;;
8538;SDS011;4307;53.868;11.680;2023-04-29T10:07:53;8.50;;;5.30;;
8538;SDS011;4307;53.868;11.680;2023-04-29T10:10:21;10.33;;;5.80;;
8538;SDS011;4307;53.868;11.680;2023-04-29T10:12:51;9.50;;;6.20;;
8538;SDS011;4307;53.868;11.680;2023-04-29T10:15:19;8.43;;;6.47;;
8538;SDS011;4307;53.868;11.680;2023-04-29T10:17:53;8.07;;;5.13;;
8538;SDS011;4307;53.868;11.680;2023-04-29T10:20:25;9.80;;;6.20;;
8538;SDS011;4307;53.868;11.680;2023-04-29T10:22:53;6.73;;;6.03;;
8538;SDS011;4307;53.868;11.680;2023-04-29T10:25:21;7.37;;;5.70;;
8538;SDS011;4307;53.868;11.680;2023-04-29T10:27:53;9.33;;;5.70;;
8538;SDS011;4307;53.868;11.680;2023-04-29T10:30:21;7.47;;;5.30;;
8538;SDS011;4307;53.868;11.680;2023-04-29T10:32:48;10.47;;;6.43;;
8538;SDS011;4307;53.868;11.680;2023-04-29T10:35:16;12.57;;;6.37;;
8538;SDS011;4307;53.868;11.680;2023-04-29T10:37:44;10.90;;;5.90;;
8538;SDS011;4307;53.868;11.680;2023-04-29T10:40:13;7.67;;;5.47;;
8538;SDS011;4307;53.868;11.680;2023-04-29T10:42:43;11.40;;;5.80;;
8538;SDS011;4307;53.868;11.680;2023-04-29T10:45:22;8.77;;;5.47;;
8538;SDS011;4307;53.868;11.680;2023-04-29T10:48:07;9.67;;;5.80;;
8538;SDS011;4307;53.868;11.680;2023-04-29T10:53:31;8.53;;;5.30;;
8538;SDS011;4307;53.868;11.680;2023-04-29T10:56:07;7.30;;;5.70;;
8538;SDS011;4307;53.868;11.680;2023-04-29T10:58:36;9.03;;;5.73;;
8538;SDS011;4307;53.868;11.680;2023-04-29T11:01:13;12.40;;;5.60;;
8538;SDS011;4307;53.868;11.680;2023-04-29T11:03:45;9.77;;;5.33;;
8538;SDS011;4307;53.868;11.680;2023-04-29T11:06:19;9.17;;;5.50;;
8538;SDS011;4307;53.868;11.680;2023-04-29T11:08:58;7.17;;;5.70;;
8538;SDS011;4307;53.868;11.680;2023-04-29T11:11:26;8.67;;;5.50;;
8538;SDS011;4307;53.868;11.680;2023-04-29T11:14:05;6.10;;;5.50;;
8538;SDS011;4307;53.868;11.680;2023-04-29T11:16:35;8.47;;;5.30;;
8538;SDS011;4307;53.868;11.680;2023-04-29T11:19:03;7.03;;;5.17;;
8538;SDS011;4307;53.868;11.680;2023-04-29T11:21:32;8.47;;;5.70;;
8538;SDS011;4307;53.868;11.680;2023-04-29T11:23:59;6.73;;;5.10;;
8538;SDS011;4307;53.868;11.680;2023-04-29T11:26:26;7.07;;;5.37;;
8538;SDS011;4307;53.868;11.680;2023-04-29T11:28:53;9.93;;;6.00;;
8538;SDS011;4307;53.868;11.680;2023-04-29T11:31:24;9.10;;;5.90;;
8538;SDS011;4307;53.868;11.680;2023-04-29T11:33:54;10.67;;;6.30;;
8538;SDS011;4307;53.868;11.680;2023-04-29T11:36:21;9.57;;;6.03;;
8538;SDS011;4307;53.868;11.680;2023-04-29T11:38:48;10.73;;;6.10;;
8538;SDS011;4307;53.868;11.680;2023-04-29T11:41:15;7.07;;;5.27;;
8538;SDS011;4307;53.868;11.680;2023-04-29T11:43:44;7.63;;;5.67;;
8538;SDS011;4307;53.868;11.680;2023-04-29T11:46:11;9.07;;;5.50;;
8538;SDS011;4307;53.868;11.680;2023-04-29T11:48:44;9.63;;;5.40;;
8538;SDS011;4307;53.868;11.680;2023-04-29T11:51:13;10.13;;;5.50;;
8538;SDS011;4307;53.868;11.680;2023-04-29T11:53:40;7.70;;;6.00;;
8538;SDS011;4307;53.868;11.680;2023-04-29T11:56:08;7.23;;;5.20;;
8538;SDS011;4307;53.868;11.680;2023-04-29T11:58:35;9.10;;;5.10;;
8538;SDS011;4307;53.868;11.680;2023-04-29T12:01:02;6.20;;;4.90;;
8538;SDS011;4307;53.868;11.680;2023-04-29T12:03:30;6.40;;;5.33;;
8538;SDS011;4307;53.868;11.680;2023-04-29T12:05:57;5.47;;;4.80;;
8538;SDS011;4307;53.868;11.680;2023-04-29T12:08:27;7.10;;;5.27;;
8538;SDS011;4307;53.868;11.680;2023-04-29T12:10:55;6.53;;;4.50;;
8538;SDS011;4307;53.868;11.680;2023-04-29T12:13:24;7.00;;;5.00;;
8538;SDS011;4307;53.868;11.680;2023-04-29T12:15:52;5.93;;;4.30;;
8538;SDS011;4307;53.868;11.680;2023-04-29T12:18:19;6.37;;;4.57;;
8538;SDS011;4307;53.868;11.680;2023-04-29T12:20:47;5.83;;;4.93;;
8538;SDS011;4307;53.868;11.680;2023-04-29T12:23:16;8.70;;;5.27;;
8538;SDS011;4307;53.868;11.680;2023-04-29T12:25:49;8.53;;;4.37;;
8538;SDS011;4307;53.868;11.680;2023-04-29T12:28:17;6.50;;;5.00;;
8538;SDS011;4307;53.868;11.680;2023-04-29T12:30:47;8.27;;;4.53;;
8538;SDS011;4307;53.868;11.680;2023-04-29T12:33:17;6.43;;;4.83;;
8538;SDS011;4307;53.868;11.680;2023-04-29T12:35:46;6.47;;;4.40;;
8538;SDS011;4307;53.868;11.680;2023-04-29T12:38:14;5.67;;;4.00;;
8538;SDS011;4307;53.868;11.680;2023-04-29T12:40:43;8.83;;;4.43;;
8538;SDS011;4307;53.868;11.680;2023-04-29T12:43:11;7.00;;;4.57;;
8538;SDS011;4307;53.868;11.680;2023-04-29T12:45:38;7.33;;;4.40;;
8538;SDS011;4307;53.868;11.680;2023-04-29T12:48:05;8.50;;;4.93;;
8538;SDS011;4307;53.868;11.680;2023-04-29T12:50:32;8.97;;;5.07;;
8538;SDS011;4307;53.868;11.680;2023-04-29T12:53:01;6.50;;;4.97;;
8538;SDS011;4307;53.868;11.680;2023-04-29T12:55:28;8.20;;;4.67;;
8538;SDS011;4307;53.868;11.680;2023-04-29T12:57:58;4.70;;;4.07;;
8538;SDS011;4307;53.868;11.680;2023-04-29T13:00:26;5.87;;;4.07;;
8538;SDS011;4307;53.868;11.680;2023-04-29T13:02:53;3.93;;;3.33;;
8538;SDS011;4307;53.868;11.680;2023-04-29T13:05:20;7.43;;;3.87;;
8538;SDS011;4307;53.868;11.680;2023-04-29T13:07:47;6.23;;;3.97;;
8538;SDS011;4307;53.868;11.680;2023-04-29T13:10:13;7.80;;;4.97;;
8538;SDS011;4307;53.868;11.680;2023-04-29T13:12:40;5.67;;;4.83;;
8538;SDS011;4307;53.868;11.680;2023-04-29T13:15:07;5.73;;;5.13;;
8538;SDS011;4307;53.868;11.680;2023-04-29T13:17:36;6.10;;;5.13;;
8538;SDS011;4307;53.868;11.680;2023-04-29T13:20:03;9.27;;;5.83;;
8538;SDS011;4307;53.868;11.680;2023-04-29T13:22:31;8.00;;;5.30;;
8538;SDS011;4307;53.868;11.680;2023-04-29T13:24:58;9.43;;;5.43;;
8538;SDS011;4307;53.868;11.680;2023-04-29T13:27:25;9.77;;;5.33;;
8538;SDS011;4307;53.868;11.680;2023-04-29T13:29:52;6.73;;;5.03;;
8538;SDS011;4307;53.868;11.680;2023-04-29T13:32:19;5.50;;;4.90;;
8538;SDS011;4307;53.868;11.680;2023-04-29T13:34:48;6.07;;;4.90;;
8538;SDS011;4307;53.868;11.680;2023-04-29T13:37:15;7.20;;;5.00;;
8538;SDS011;4307;53.868;11.680;2023-04-29T13:39:42;7.10;;;5.40;;
8538;SDS011;4307;53.868;11.680;2023-04-29T13:42:09;8.83;;;5.43;;
8538;SDS011;4307;53.868;11.680;2023-04-29T13:44:36;7.97;;;5.17;;
8538;SDS011;4307;53.868;11.680;2023-04-29T13:47:02;6.73;;;4.73;;
8538;SDS011;4307;53.868;11.680;2023-04-29T13:49:30;6.17;;;5.37;;
8538;SDS011;4307;53.868;11.680;2023-04-29T13:51:58;8.90;;;6.10;;
8538;SDS011;4307;53.868;11.680;2023-04-29T13:54:25;8.33;;;5.87;;
8538;SDS011;4307;53.868;11.680;2023-04-29T13:56:51;10.30;;;6.20;;
8538;SDS011;4307;53.868;11.680;2023-04-29T13:59:18;8.30;;;5.83;;
8538;SDS011;4307;53.868;11.680;2023-04-29T14:01:45;9.93;;;6.10;;
8538;SDS011;4307;53.868;11.680;2023-04-29T14:04:12;9.20;;;5.97;;
8538;SDS011;4307;53.868;11.680;2023-04-29T14:06:39;7.87;;;6.47;;
8538;SDS011;4307;53.868;11.680;2023-04-29T14:09:08;9.03;;;6.43;;
8538;SDS011;4307;53.868;11.680;2023-04-29T14:11:35;12.50;;;6.57;;
8538;SDS011;4307;53.868;11.680;2023-04-29T14:14:02;8.17;;;6.27;;
8538;SDS011;4307;53.868;11.680;2023-04-29T14:16:29;8.13;;;5.80;;
8538;SDS011;4307;53.868;11.680;2023-04-29T14:18:56;14.03;;;6.47;;
8538;SDS011;4307;53.868;11.680;2023-04-29T14:21:23;9.10;;;5.80;;
8538;SDS011;4307;53.868;11.680;2023-04-29T14:23:50;9.73;;;6.50;;
8538;SDS011;4307;53.868;11.680;2023-04-29T14:26:18;11.43;;;6.43;;
8538;SDS011;4307;53.868;11.680;2023-04-29T14:28:44;7.63;;;6.27;;
8538;SDS011;4307;53.868;11.680;2023-04-29T14:31:11;7.83;;;6.30;;
8538;SDS011;4307;53.868;11.680;2023-04-29T14:33:39;10.57;;;7.33;;
8538;SDS011;4307;53.868;11.680;2023-04-29T14:36:05;8.13;;;6.50;;
8538;SDS011;4307;53.868;11.680;2023-04-29T14:38:32;13.83;;;8.27;;
8538;SDS011;4307;53.868;11.680;2023-04-29T14:40:59;10.83;;;7.30;;
8538;SDS011;4307;53.868;11.680;2023-04-29T14:43:27;14.30;;;6.43;;
8538;SDS011;4307;53.868;11.680;2023-04-29T14:45:53;9.33;;;6.60;;
8538;SDS011;4307;53.868;11.680;2023-04-29T14:48:20;6.97;;;6.20;;
8538;SDS011;4307;53.868;11.680;2023-04-29T14:50:47;9.63;;;6.33;;
8538;SDS011;4307;53.868;11.680;2023-04-29T14:53:14;8.90;;;6.33;;
8538;SDS011;4307;53.868;11.680;2023-04-29T14:55:41;12.40;;;7.53;;
8538;SDS011;4307;53.868;11.680;2023-04-29T14:58:07;13.07;;;6.50;;
8538;SDS011;4307;53.868;11.680;2023-04-29T15:00:36;9.30;;;7.03;;